createdAt,value
2023-03-06T00:00:52.417Z,0
2023-03-06T00:05:52.471Z,0
2023-03-06T00:10:52.394Z,0
2023-03-06T00:15:52.525Z,0
2023-03-06T00:20:52.394Z,0
2023-03-06T00:25:52.469Z,0
2023-03-06T00:30:52.413Z,0
2023-03-06T00:35:52.433Z,0
2023-03-06T00:40:52.485Z,0
2023-03-06T00:45:52.438Z,0
2023-03-06T00:50:52.506Z,0
2023-03-06T00:55:52.392Z,0
2023-03-06T01:00:52.420Z,0
2023-03-06T01:05:52.408Z,0
2023-03-06T01:10:52.468Z,0
2023-03-06T01:25:52.669Z,0
2023-03-06T01:30:52.654Z,0
2023-03-06T01:35:52.686Z,0
2023-03-06T01:40:57.170Z,0
2023-03-06T01:45:52.619Z,0
2023-03-06T01:50:52.618Z,0
2023-03-06T01:55:52.409Z,0
2023-03-06T02:00:52.490Z,0
2023-03-06T02:05:52.413Z,0
2023-03-06T02:10:52.398Z,0
2023-03-06T02:15:52.438Z,0
2023-03-06T02:20:52.416Z,0
2023-03-06T02:25:53.750Z,0
2023-03-06T02:30:52.535Z,0
2023-03-06T02:35:52.393Z,0
2023-03-06T02:40:52.527Z,0
2023-03-06T02:45:52.578Z,0
2023-03-06T02:50:52.525Z,0
2023-03-06T02:55:52.511Z,0
2023-03-06T03:00:52.445Z,0
2023-03-06T03:05:52.482Z,0
2023-03-06T03:10:52.399Z,0
2023-03-06T03:15:52.508Z,0
2023-03-06T03:20:52.432Z,0
2023-03-06T03:25:52.529Z,0
2023-03-06T03:30:52.439Z,0
2023-03-06T03:35:52.541Z,0
2023-03-06T03:40:52.413Z,0
2023-03-06T03:45:52.409Z,0
2023-03-06T03:50:52.434Z,0
2023-03-06T03:55:52.473Z,0
2023-03-06T04:00:52.515Z,0
2023-03-06T04:05:52.428Z,0
2023-03-06T04:10:52.524Z,0
2023-03-06T04:15:52.450Z,0
2023-03-06T04:20:52.578Z,0
2023-03-06T04:25:52.472Z,0
2023-03-06T04:30:52.516Z,0
2023-03-06T04:35:52.485Z,0
2023-03-06T04:40:52.671Z,0
2023-03-06T04:45:52.478Z,0
2023-03-06T04:50:52.487Z,0
2023-03-06T04:55:52.501Z,0
2023-03-06T05:00:52.502Z,0
2023-03-06T05:05:52.512Z,0
2023-03-06T05:10:52.478Z,0
2023-03-06T05:15:52.410Z,0
2023-03-06T05:20:52.571Z,0
2023-03-06T05:25:52.554Z,0
2023-03-06T05:30:52.505Z,0
2023-03-06T05:35:52.514Z,0
2023-03-06T05:40:52.566Z,0
2023-03-06T05:45:52.434Z,0
2023-03-06T05:50:52.577Z,0
2023-03-06T05:55:52.490Z,0
2023-03-06T06:00:52.578Z,0
2023-03-06T06:05:52.522Z,0
2023-03-06T06:10:55.530Z,0
2023-03-06T06:15:52.539Z,0
2023-03-06T06:20:54.405Z,265
2023-03-06T06:25:52.513Z,266
2023-03-06T06:30:52.505Z,268
2023-03-06T06:35:52.598Z,269
2023-03-06T06:41:27.058Z,269
2023-03-06T06:45:57.399Z,271
2023-03-06T06:50:52.643Z,274
2023-03-06T06:55:52.641Z,277
2023-03-06T07:00:53.977Z,279
2023-03-06T07:05:52.577Z,283
2023-03-06T07:10:52.768Z,293
2023-03-06T07:15:52.586Z,294
2023-03-06T07:20:52.502Z,294
2023-03-06T07:25:52.861Z,281
2023-03-06T07:30:52.536Z,283
2023-03-06T07:35:52.485Z,293
2023-03-06T07:40:52.541Z,294
2023-03-06T07:45:52.476Z,296
2023-03-06T07:50:52.489Z,292
2023-03-06T07:55:52.663Z,294
2023-03-06T08:00:52.711Z,294
2023-03-06T08:05:52.492Z,286
2023-03-06T08:10:52.703Z,288
2023-03-06T08:15:52.544Z,294
2023-03-06T08:20:52.521Z,290
2023-03-06T08:25:52.540Z,297
2023-03-06T08:30:52.551Z,294
2023-03-06T08:35:52.575Z,298
2023-03-06T08:40:52.532Z,300
2023-03-06T08:45:52.501Z,313
2023-03-06T08:50:52.450Z,300
2023-03-06T09:05:52.581Z,306
2023-03-06T09:10:52.610Z,307
2023-03-06T09:15:52.457Z,302
2023-03-06T09:20:52.598Z,305
2023-03-06T09:25:52.544Z,322
2023-03-06T09:30:52.525Z,326
2023-03-06T09:35:52.606Z,323
2023-03-06T09:40:52.569Z,323
2023-03-06T09:45:52.553Z,331
2023-03-06T09:50:52.587Z,318
2023-03-06T09:55:52.545Z,313
2023-03-06T10:00:52.478Z,328
2023-03-06T10:05:52.579Z,325
2023-03-06T10:10:52.521Z,315
2023-03-06T10:15:52.612Z,314
2023-03-06T10:20:52.565Z,309
2023-03-06T10:25:52.526Z,309
2023-03-06T10:30:52.502Z,321
2023-03-06T10:35:52.668Z,315
2023-03-06T10:40:52.567Z,336
2023-03-06T10:45:52.538Z,344
2023-03-06T10:50:52.578Z,369
2023-03-06T10:55:52.516Z,340
2023-03-06T11:00:52.623Z,352
2023-03-06T11:05:52.584Z,351
2023-03-06T11:10:52.542Z,304
2023-03-06T11:15:52.544Z,315
2023-03-06T11:20:53.721Z,331
2023-03-06T11:25:52.479Z,286
2023-03-06T11:30:52.499Z,300
2023-03-06T11:35:52.530Z,308
2023-03-06T11:40:52.566Z,340
2023-03-06T11:45:52.569Z,344
2023-03-06T11:50:52.603Z,292
2023-03-06T11:55:52.510Z,304
2023-03-06T12:00:52.522Z,342
2023-03-06T12:05:52.688Z,327
2023-03-06T12:10:53.565Z,303
2023-03-06T12:15:52.844Z,333
2023-03-06T12:20:52.769Z,324
2023-03-06T12:25:52.622Z,324
2023-03-06T12:30:52.549Z,315
2023-03-06T12:35:52.846Z,335
2023-03-06T12:40:52.546Z,318
2023-03-06T12:45:54.470Z,317
2023-03-06T12:50:52.643Z,335
2023-03-06T12:55:52.670Z,344
2023-03-06T13:05:52.649Z,328
2023-03-06T13:10:54.488Z,329
2023-03-06T13:15:52.870Z,334
2023-03-06T13:20:53.045Z,327
2023-03-06T13:25:52.696Z,328
2023-03-06T13:30:53.610Z,307
2023-03-06T13:35:52.638Z,324
2023-03-06T13:40:52.982Z,330
2023-03-06T13:45:52.640Z,314
2023-03-06T13:50:52.553Z,305
2023-03-06T13:55:52.603Z,311
2023-03-06T14:00:53.610Z,325
2023-03-06T14:05:52.790Z,324
2023-03-06T14:10:52.591Z,301
2023-03-06T14:15:52.677Z,304
2023-03-06T14:20:52.612Z,305
2023-03-06T14:25:52.746Z,298
2023-03-06T14:30:52.743Z,289
2023-03-06T14:35:53.264Z,281
2023-03-06T14:40:56.935Z,280
2023-03-06T14:45:52.525Z,287
2023-03-06T14:50:53.651Z,298
2023-03-06T14:55:52.585Z,296
2023-03-06T15:00:52.638Z,300
2023-03-06T15:05:52.689Z,298
2023-03-06T15:10:52.600Z,296
2023-03-06T15:15:52.612Z,279
2023-03-06T15:20:53.734Z,278
2023-03-06T15:25:52.556Z,275
2023-03-06T15:30:52.672Z,273
2023-03-06T15:35:52.703Z,274
2023-03-06T15:40:52.609Z,274
2023-03-06T15:45:52.568Z,270
2023-03-06T15:50:52.672Z,266
2023-03-06T15:55:52.581Z,269
2023-03-06T16:00:52.735Z,268
2023-03-06T16:05:52.673Z,266
2023-03-06T16:10:52.606Z,268
2023-03-06T16:15:52.703Z,268
2023-03-06T16:20:52.652Z,268
2023-03-06T16:25:52.585Z,0
2023-03-06T16:30:52.656Z,265
2023-03-06T16:35:52.675Z,265
2023-03-06T16:40:52.751Z,0
2023-03-06T16:45:55.347Z,0
2023-03-06T16:50:52.812Z,0
2023-03-06T16:55:52.763Z,0
2023-03-06T17:00:57.233Z,0
2023-03-06T17:05:52.637Z,0
2023-03-06T17:10:54.894Z,0
2023-03-06T17:15:52.740Z,0
2023-03-06T17:20:53.118Z,0
2023-03-06T17:25:52.886Z,0
2023-03-06T17:35:54.296Z,0
2023-03-06T17:40:52.765Z,0
2023-03-06T17:45:52.619Z,0
2023-03-06T17:50:52.787Z,0
2023-03-06T17:55:52.692Z,0
2023-03-06T18:00:52.623Z,0
2023-03-06T18:05:52.612Z,0
2023-03-06T18:10:52.631Z,0
2023-03-06T18:15:52.677Z,0
2023-03-06T18:20:52.820Z,0
2023-03-06T18:25:52.703Z,0
2023-03-06T18:30:53.730Z,0
2023-03-06T18:35:52.763Z,0
2023-03-06T18:40:52.766Z,0
2023-03-06T18:45:52.643Z,0
2023-03-06T18:50:52.592Z,0
2023-03-06T18:55:52.730Z,0
2023-03-06T19:00:52.760Z,0
2023-03-06T19:05:53.712Z,0
2023-03-06T19:10:52.642Z,0
2023-03-06T19:15:52.642Z,0
2023-03-06T19:20:52.653Z,0
2023-03-06T19:25:52.732Z,0
2023-03-06T19:30:52.708Z,0
2023-03-06T19:35:52.642Z,0
2023-03-06T19:40:52.729Z,0
2023-03-06T19:45:52.704Z,0
2023-03-06T19:50:52.830Z,0
2023-03-06T19:55:52.661Z,0
2023-03-06T20:00:52.604Z,0
2023-03-06T20:05:52.647Z,0
2023-03-06T20:10:52.680Z,0
2023-03-06T20:15:52.664Z,0
2023-03-06T20:20:52.812Z,0
2023-03-06T20:25:52.644Z,0
2023-03-06T20:30:52.666Z,0
2023-03-06T20:35:52.666Z,0
2023-03-06T20:40:54.328Z,0
2023-03-06T20:45:52.626Z,0
2023-03-06T20:50:54.697Z,0
2023-03-06T20:55:52.710Z,0
2023-03-06T21:00:52.775Z,0
2023-03-06T21:05:52.759Z,0
2023-03-06T21:10:52.735Z,0
2023-03-06T21:15:52.652Z,0
2023-03-06T21:20:52.671Z,0
2023-03-06T21:25:52.978Z,0
2023-03-06T21:30:53.698Z,0
2023-03-06T21:35:52.721Z,0
2023-03-06T21:40:52.631Z,0
2023-03-06T21:45:52.786Z,0
2023-03-06T21:50:52.898Z,0
2023-03-06T21:55:52.779Z,0
2023-03-06T22:00:53.729Z,0
2023-03-06T22:05:52.730Z,0
2023-03-06T22:10:52.680Z,0
2023-03-06T22:15:52.646Z,0
2023-03-06T22:20:52.858Z,0
2023-03-06T22:25:52.687Z,0
2023-03-06T22:30:52.765Z,0
2023-03-06T22:35:52.821Z,0
2023-03-06T22:40:53.736Z,0
2023-03-06T22:45:52.736Z,0
2023-03-06T22:50:53.936Z,0
2023-03-06T22:55:54.321Z,0
2023-03-06T23:00:52.719Z,0
2023-03-06T23:05:52.725Z,0
2023-03-06T23:10:52.787Z,0
2023-03-06T23:15:52.769Z,0
2023-03-06T23:20:53.741Z,0
2023-03-06T23:26:01.047Z,0
2023-03-06T23:30:52.655Z,0
2023-03-06T23:35:52.842Z,0
2023-03-06T23:40:54.502Z,0
2023-03-06T23:45:52.651Z,0
2023-03-06T23:50:52.705Z,0
2023-03-06T23:55:53.797Z,0
